Time;durP1;ratioP1;P1;durP2;ratioP2;P2;SDS_P1;SDS_P2;PMS_P1;PMS_P2;Temp;Humidity;BMP_temperature;BMP_pressure;BME280_temperature;BME280_humidity;BME280_pressure;Samples;Min_cycle;Max_cycle;Signal;HPM_P1;HPM_P2
2022/11/11 00:00:22;;;;;;;12.63;7.93;;;8.90;70.50;;;;;;6279320;22;20003;-77
2022/11/11 00:02:48;;;;;;;21.33;10.27;;;8.90;70.50;;;;;;6306549;22;19999;-74
2022/11/11 00:05:15;;;;;;;17.13;10.52;;;8.90;70.50;;;;;;6306467;22;20004;-73
2022/11/11 00:07:41;;;;;;;16.98;9.50;;;8.90;70.60;;;;;;6306480;22;19999;-74
2022/11/11 00:10:07;;;;;;;14.77;8.30;;;8.90;70.70;;;;;;6306706;22;20007;-74
2022/11/11 00:12:33;;;;;;;18.67;8.57;;;8.90;70.80;;;;;;6306541;22;20002;-74
2022/11/11 00:14:59;;;;;;;11.07;7.63;;;8.90;70.70;;;;;;6306635;22;20541;-75
2022/11/11 00:25:39;;;;;;;14.05;9.02;;;8.90;70.60;;;;;;6338485;22;20073;-75
2022/11/11 00:28:05;;;;;;;16.23;9.45;;;8.90;70.50;;;;;;6338426;22;19999;-75
2022/11/11 00:30:31;;;;;;;14.50;9.45;;;8.80;70.50;;;;;;6310994;22;20002;-74
2022/11/11 00:32:57;;;;;;;17.60;9.93;;;8.80;70.60;;;;;;6338139;22;19998;-76
2022/11/11 00:40:58;;;;;;;14.60;7.57;;;8.80;71.40;;;;;;6338305;22;20045;-76
2022/11/11 00:43:24;;;;;;;11.77;7.15;;;8.90;71.70;;;;;;6338442;22;20334;-76
2022/11/11 00:45:49;;;;;;;12.15;8.05;;;9.00;71.90;;;;;;6338229;22;19999;-75
2022/11/11 00:51:00;;;;;;;15.25;8.70;;;9.10;72.20;;;;;;6338388;22;20056;-74
2022/11/11 00:53:35;;;;;;;15.77;8.73;;;9.10;72.10;;;;;;6338295;22;20368;-76
2022/11/11 00:56:01;;;;;;;16.70;8.77;;;9.20;72.20;;;;;;6338127;22;20049;-76
2022/11/11 00:58:27;;;;;;;15.35;8.70;;;9.30;72.20;;;;;;6310776;22;20010;-77
2022/11/11 01:00:53;;;;;;;17.45;8.57;;;9.40;72.20;;;;;;6338141;22;20030;-74
2022/11/11 01:03:21;;;;;;;16.77;9.85;;;9.40;72.20;;;;;;6310397;22;20311;-76
2022/11/11 01:05:47;;;;;;;13.00;8.13;;;9.50;72.20;;;;;;6337750;22;20095;-74
2022/11/11 01:08:13;;;;;;;12.63;8.65;;;9.60;73.10;;;;;;6338081;22;20013;-75
2022/11/11 01:10:40;;;;;;;13.00;8.95;;;9.70;72.20;;;;;;6338031;22;19998;-77
2022/11/11 01:13:30;;;;;;;12.95;8.75;;;9.80;72.20;;;;;;6310818;22;20011;-76
2022/11/11 01:16:02;;;;;;;11.00;7.22;;;9.80;72.40;;;;;;6338418;22;20026;-77
2022/11/11 01:18:28;;;;;;;11.73;7.60;;;9.90;71.90;;;;;;6338264;22;20350;-75
2022/11/11 01:21:08;;;;;;;12.27;6.63;;;10.00;71.80;;;;;;6337820;22;20022;-76
2022/11/11 01:23:36;;;;;;;10.93;6.10;;;10.00;72.40;;;;;;6338883;22;20006;-77
2022/11/11 01:26:05;;;;;;;7.45;5.82;;;10.10;71.50;;;;;;6337758;22;20120;-76
2022/11/11 01:28:31;;;;;;;12.02;6.20;;;10.10;71.30;;;;;;6338040;22;20073;-74
2022/11/11 01:31:03;;;;;;;7.45;5.38;;;10.10;71.10;;;;;;6337968;22;20138;-76
2022/11/11 01:33:28;;;;;;;9.05;5.80;;;10.10;70.90;;;;;;6310013;22;20064;-74
2022/11/11 01:35:54;;;;;;;10.23;5.22;;;10.10;70.80;;;;;;6337671;22;20011;-75
2022/11/11 01:38:20;;;;;;;7.47;5.18;;;10.10;70.80;;;;;;6337287;22;20002;-76
2022/11/11 01:40:47;;;;;;;8.32;6.22;;;10.20;70.80;;;;;;6337933;22;20003;-76
2022/11/11 01:43:22;;;;;;;7.90;5.82;;;10.20;70.80;;;;;;6337635;22;20325;-77
2022/11/11 01:45:58;;;;;;;6.90;5.43;;;10.20;70.60;;;;;;6337797;22;20031;-75
2022/11/11 01:51:28;;;;;;;9.38;6.43;;;10.20;70.60;;;;;;6337902;22;20072;-75
2022/11/11 01:54:00;;;;;;;12.00;7.03;;;10.20;70.50;;;;;;6337679;22;20002;-75
2022/11/11 01:56:26;;;;;;;11.13;6.88;;;10.20;70.60;;;;;;6337944;22;19995;-77
2022/11/11 01:58:55;;;;;;;11.10;7.07;;;10.30;70.70;;;;;;6337766;22;20002;-75
2022/11/11 02:01:21;;;;;;;11.05;7.22;;;10.20;70.70;;;;;;6310092;22;20402;-76
2022/11/11 02:06:35;;;;;;;13.50;6.50;;;10.30;70.80;;;;;;6337571;22;20044;-76
2022/11/11 02:09:02;;;;;;;11.35;7.47;;;10.30;70.80;;;;;;6337557;22;20006;-77
2022/11/11 02:16:59;;;;;;;14.60;7.22;;;10.40;70.90;;;;;;6337670;22;20092;-75
2022/11/11 02:19:44;;;;;;;14.95;6.65;;;10.40;70.90;;;;;;6309705;22;20014;-75
2022/11/11 02:22:30;;;;;;;12.52;7.43;;;10.50;71.00;;;;;;6337670;22;20013;-74
2022/11/11 02:24:58;;;;;;;13.48;7.18;;;10.50;71.00;;;;;;6337200;22;20082;-75
2022/11/11 02:27:26;;;;;;;14.68;8.18;;;10.50;71.00;;;;;;6337610;22;20022;-77
2022/11/11 02:29:54;;;;;;;12.55;6.65;;;10.60;71.10;;;;;;6337251;22;19999;-77
2022/11/11 02:32:20;;;;;;;14.40;7.03;;;10.60;71.00;;;;;;6309661;22;20010;-76
2022/11/11 02:34:46;;;;;;;21.35;7.75;;;10.60;71.00;;;;;;6337213;22;20003;-76
2022/11/11 02:37:15;;;;;;;11.63;6.72;;;10.70;71.00;;;;;;6337298;22;19998;-74
2022/11/11 02:39:46;;;;;;;15.05;6.60;;;10.70;70.90;;;;;;6337389;22;20407;-77
2022/11/11 02:42:14;;;;;;;15.73;7.35;;;10.70;71.00;;;;;;6309681;22;20034;-75
2022/11/11 02:44:40;;;;;;;12.05;6.97;;;10.80;70.90;;;;;;6336707;22;20489;-75
2022/11/11 02:47:06;;;;;;;14.48;7.40;;;10.80;70.90;;;;;;6337143;22;20002;-76
2022/11/11 02:49:32;;;;;;;17.52;7.88;;;10.80;70.90;;;;;;6337355;22;20003;-77
2022/11/11 02:51:58;;;;;;;17.15;7.55;;;10.90;70.90;;;;;;6337436;22;19999;-76
2022/11/11 02:54:23;;;;;;;18.65;8.30;;;10.90;70.80;;;;;;6309691;22;20311;-78
2022/11/11 02:57:07;;;;;;;16.30;7.53;;;11.00;70.90;;;;;;6337593;22;20006;-75
2022/11/11 02:59:38;;;;;;;24.20;7.28;;;11.00;70.80;;;;;;6337262;22;20329;-77
2022/11/11 03:02:04;;;;;;;20.98;7.68;;;11.00;70.70;;;;;;6337179;22;20479;-75
2022/11/11 03:04:30;;;;;;;21.00;7.95;;;11.10;70.70;;;;;;6309539;22;20018;-76
2022/11/11 03:06:56;;;;;;;13.10;6.78;;;11.10;70.70;;;;;;6337263;22;19995;-74
2022/11/11 03:09:22;;;;;;;16.70;8.02;;;11.10;70.70;;;;;;6337123;22;20321;-77
2022/11/11 03:11:48;;;;;;;37.25;7.47;;;11.10;70.70;;;;;;6309521;22;20003;-75
2022/11/11 03:14:14;;;;;;;21.23;8.15;;;11.20;70.70;;;;;;6337122;22;20006;-75
2022/11/11 03:19:24;;;;;;;16.02;7.18;;;11.10;70.20;;;;;;6336884;22;20102;-75
2022/11/11 03:21:50;;;;;;;24.20;9.02;;;11.10;70.10;;;;;;6337253;22;20497;-75
2022/11/11 03:24:15;;;;;;;20.77;8.95;;;11.10;70.10;;;;;;6309341;22;20035;-75
2022/11/11 03:26:41;;;;;;;24.83;8.93;;;11.10;70.10;;;;;;6309395;22;20002;-77
2022/11/11 03:29:07;;;;;;;21.77;9.00;;;11.10;70.10;;;;;;6337025;22;20007;-74
2022/11/11 03:31:33;;;;;;;21.27;8.57;;;11.10;70.10;;;;;;6309354;22;19995;-77
2022/11/11 03:34:17;;;;;;;20.13;8.10;;;11.10;70.10;;;;;;6337076;22;19987;-76
2022/11/11 03:39:28;;;;;;;21.88;8.05;;;11.20;70.10;;;;;;6337191;22;20483;-77
2022/11/11 03:41:55;;;;;;;27.58;9.02;;;11.20;70.10;;;;;;6336987;22;20028;-77
2022/11/11 03:44:21;;;;;;;26.90;9.60;;;11.20;70.10;;;;;;6336837;22;20057;-77
2022/11/11 03:46:47;;;;;;;21.70;8.80;;;11.20;70.20;;;;;;6309097;22;20010;-77
2022/11/11 03:49:12;;;;;;;23.67;8.95;;;11.20;70.20;;;;;;6336774;22;19994;-77
2022/11/11 03:51:38;;;;;;;19.25;9.07;;;11.20;70.30;;;;;;6336909;22;20051;-78
2022/11/11 03:54:04;;;;;;;24.70;9.68;;;11.20;70.20;;;;;;6337138;22;19999;-77
2022/11/11 03:56:30;;;;;;;18.85;10.35;;;11.20;70.10;;;;;;6336616;22;20431;-76
2022/11/11 03:58:56;;;;;;;16.42;10.07;;;11.20;70.00;;;;;;6336946;22;19998;-78
2022/11/11 04:12:28;;;;;;;20.15;10.80;;;11.30;69.50;;;;;;6300510;22;20003;-76
2022/11/11 04:17:38;;;;;;;20.15;9.55;;;11.20;69.50;;;;;;6336828;22;20069;-76
2022/11/11 04:22:52;;;;;;;;;;;11.20;69.70;;;;;;6337215;22;20025;-77
2022/11/11 04:30:47;;;;;;;24.20;9.65;;;11.30;69.70;;;;;;6336621;22;20010;-76
2022/11/11 04:33:13;;;;;;;18.60;8.88;;;11.20;69.60;;;;;;6336319;22;19999;-77
2022/11/11 04:35:38;;;;;;;22.90;10.18;;;11.20;69.70;;;;;;6308587;22;20341;-77
2022/11/11 04:41:02;;;;;;;;;;;11.20;69.80;;;;;;6336964;22;20064;-77
2022/11/11 04:43:28;;;;;;;24.50;7.93;;;11.20;69.80;;;;;;6336485;22;19947;-75
2022/11/11 04:46:00;;;;;;;21.55;9.95;;;11.30;69.80;;;;;;6336204;22;20041;-77
2022/11/11 04:48:27;;;;;;;29.05;9.77;;;11.30;70.00;;;;;;6336098;22;20390;-77
2022/11/11 04:50:53;;;;;;;17.23;9.82;;;11.30;70.00;;;;;;6308627;22;20001;-77
2022/11/11 04:53:19;;;;;;;14.63;9.05;;;11.30;70.10;;;;;;6336351;22;20334;-76
2022/11/11 04:58:30;;;;;;;;;;;11.30;70.10;;;;;;6337100;22;20088;-78
2022/11/11 05:00:56;;;;;;;17.98;8.65;;;11.30;70.10;;;;;;6336385;22;19945;-75
2022/11/11 05:03:22;;;;;;;18.85;9.32;;;11.40;70.10;;;;;;6307519;22;20781;-76
2022/11/11 05:08:55;;;;;;;17.63;8.30;;;11.40;70.20;;;;;;6336884;22;20349;-75
2022/11/11 05:11:32;;;;;;;20.83;9.95;;;11.40;70.20;;;;;;6337885;22;20003;-76
2022/11/11 05:22:37;;;;;;;30.10;11.82;;;11.40;70.40;;;;;;6337900;22;20378;-75
2022/11/11 05:27:48;;;;;;;30.80;11.63;;;11.40;70.50;;;;;;6337810;22;20013;-74
2022/11/11 05:30:16;;;;;;;29.83;12.65;;;11.40;70.50;;;;;;6337601;22;19991;-77
2022/11/11 05:32:42;;;;;;;27.05;13.75;;;11.40;70.40;;;;;;6337529;22;20009;-76
2022/11/11 05:35:09;;;;;;;26.05;13.50;;;11.40;70.40;;;;;;6337578;22;19995;-77
2022/11/11 05:37:35;;;;;;;30.58;13.40;;;11.30;70.20;;;;;;6337581;22;19999;-75
2022/11/11 05:40:01;;;;;;;31.55;12.98;;;11.30;70.20;;;;;;6337599;22;20430;-77
2022/11/11 05:42:26;;;;;;;22.85;12.40;;;11.30;70.30;;;;;;6337667;22;19999;-76
2022/11/11 05:44:52;;;;;;;23.75;13.18;;;11.30;70.40;;;;;;6337144;22;19999;-75
2022/11/11 05:47:18;;;;;;;27.02;13.02;;;11.30;70.40;;;;;;6337696;22;20066;-74
2022/11/11 05:49:44;;;;;;;44.85;14.70;;;11.30;70.30;;;;;;6337327;22;20021;-77
2022/11/11 05:52:11;;;;;;;21.15;11.45;;;11.20;70.10;;;;;;6337869;22;19998;-76
2022/11/11 05:54:37;;;;;;;24.40;12.13;;;11.20;70.10;;;;;;6337924;22;20311;-75
2022/11/11 05:57:03;;;;;;;23.48;12.18;;;11.20;70.10;;;;;;6337811;22;20026;-74
2022/11/11 05:59:30;;;;;;;21.95;12.73;;;11.20;70.20;;;;;;6310298;22;20446;-77
2022/11/11 06:01:55;;;;;;;20.50;11.82;;;11.20;70.30;;;;;;6337895;22;19991;-75
2022/11/11 06:04:21;;;;;;;26.08;13.10;;;11.20;70.30;;;;;;6337391;22;20013;-74
2022/11/11 06:06:47;;;;;;;26.63;11.82;;;11.20;70.40;;;;;;6337701;22;20022;-76
2022/11/11 06:09:13;;;;;;;26.02;11.50;;;11.20;70.40;;;;;;6310094;22;20444;-75
2022/11/11 06:11:38;;;;;;;31.08;11.55;;;11.30;70.40;;;;;;6337988;22;20005;-75
2022/11/11 06:14:04;;;;;;;24.58;12.75;;;11.30;70.40;;;;;;6337426;22;20052;-75
2022/11/11 06:16:33;;;;;;;19.73;11.48;;;11.30;70.40;;;;;;6337471;22;20421;-75
2022/11/11 06:18:59;;;;;;;20.73;11.20;;;11.30;70.30;;;;;;6337149;22;20025;-76
2022/11/11 06:21:26;;;;;;;25.23;10.70;;;11.30;70.30;;;;;;6337471;22;19994;-76
2022/11/11 06:23:52;;;;;;;25.08;10.88;;;11.30;70.30;;;;;;6309683;22;20014;-75
2022/11/11 06:26:18;;;;;;;25.95;12.20;;;11.40;70.40;;;;;;6309517;22;20011;-75
2022/11/11 06:28:46;;;;;;;26.55;12.55;;;11.40;70.50;;;;;;6337293;22;19999;-77
2022/11/11 06:31:15;;;;;;;20.60;12.13;;;11.40;70.40;;;;;;6337285;22;20003;-75
2022/11/11 06:33:44;;;;;;;17.90;11.57;;;11.40;70.30;;;;;;6337196;22;20003;-74
2022/11/11 06:36:13;;;;;;;18.40;10.82;;;11.40;70.20;;;;;;6337266;22;20006;-75
2022/11/11 06:38:40;;;;;;;17.85;10.55;;;11.50;70.30;;;;;;6309572;22;20382;-77
2022/11/11 06:41:06;;;;;;;20.35;12.43;;;11.50;70.30;;;;;;6337088;22;20027;-75
2022/11/11 06:43:33;;;;;;;19.13;10.98;;;11.50;70.30;;;;;;6337023;22;20013;-76
2022/11/11 06:45:58;;;;;;;20.42;11.57;;;11.60;70.30;;;;;;6336950;22;19999;-73
2022/11/11 06:48:26;;;;;;;19.25;11.07;;;11.60;70.60;;;;;;6337037;22;19990;-76
2022/11/11 06:50:52;;;;;;;18.95;11.57;;;11.60;70.20;;;;;;6309150;22;20741;-76
2022/11/11 06:53:20;;;;;;;21.27;10.43;;;11.70;70.20;;;;;;6310025;22;20007;-74
2022/11/11 06:55:46;;;;;;;23.33;12.43;;;11.70;70.20;;;;;;6337289;22;19991;-74
2022/11/11 06:58:16;;;;;;;20.50;11.55;;;11.80;70.10;;;;;;6337206;22;20006;-74
2022/11/11 07:00:42;;;;;;;23.45;11.13;;;11.80;69.80;;;;;;6309401;22;19999;-76
2022/11/11 07:03:11;;;;;;;19.00;10.88;;;11.80;69.80;;;;;;6309853;22;20006;-74
2022/11/11 07:05:37;;;;;;;19.23;11.18;;;11.90;69.60;;;;;;6336801;22;20006;-76
2022/11/11 07:08:05;;;;;;;20.80;12.35;;;11.90;69.50;;;;;;6309840;22;20418;-75
2022/11/11 07:10:32;;;;;;;22.25;12.13;;;11.90;69.20;;;;;;6337003;22;20401;-75
2022/11/11 07:12:58;;;;;;;20.73;11.88;;;11.90;69.20;;;;;;6336933;22;19995;-75
2022/11/11 07:15:24;;;;;;;41.60;15.32;;;12.00;69.20;;;;;;6336858;22;20014;-76
2022/11/11 07:17:50;;;;;;;19.73;10.75;;;12.00;68.90;;;;;;6337578;22;20023;-75
2022/11/11 07:20:17;;;;;;;20.95;11.25;;;12.00;68.80;;;;;;6337063;22;20014;-76
2022/11/11 07:22:43;;;;;;;23.42;12.70;;;12.00;68.80;;;;;;6309007;22;20013;-76
2022/11/11 07:25:08;;;;;;;20.10;11.18;;;12.00;68.70;;;;;;6309363;22;20010;-76
2022/11/11 07:27:43;;;;;;;20.10;11.18;;;12.00;68.60;;;;;;6337228;22;19999;-77
2022/11/11 07:30:10;;;;;;;18.05;10.75;;;12.00;68.40;;;;;;6336837;22;19999;-76
2022/11/11 07:32:37;;;;;;;18.70;11.73;;;12.00;68.10;;;;;;6336225;22;20338;-74
2022/11/11 07:35:03;;;;;;;17.25;11.02;;;12.00;68.20;;;;;;6308949;22;20007;-78
2022/11/11 07:37:32;;;;;;;23.77;12.88;;;12.00;68.20;;;;;;6336780;22;20022;-77
2022/11/11 07:39:57;;;;;;;23.40;12.85;;;12.00;68.00;;;;;;6336840;22;19999;-76
2022/11/11 07:42:23;;;;;;;21.75;12.70;;;12.00;67.90;;;;;;6336971;22;20003;-75
2022/11/11 07:44:49;;;;;;;19.00;12.50;;;11.90;67.80;;;;;;6336900;22;20304;-74
2022/11/11 07:47:15;;;;;;;22.25;13.02;;;11.90;67.80;;;;;;6336989;22;20002;-75
2022/11/11 07:49:40;;;;;;;21.65;13.65;;;11.90;67.80;;;;;;6337155;22;20050;-74
2022/11/11 07:52:06;;;;;;;24.00;12.75;;;11.80;67.90;;;;;;6336439;22;20014;-77
2022/11/11 07:54:32;;;;;;;27.77;13.38;;;11.80;68.10;;;;;;6336641;22;20041;-76
2022/11/11 07:56:57;;;;;;;24.60;13.52;;;11.80;68.20;;;;;;6337160;22;20084;-75
2022/11/11 07:59:23;;;;;;;30.33;12.90;;;11.80;68.40;;;;;;6337153;22;19998;-76
2022/11/11 08:01:49;;;;;;;30.00;13.93;;;11.80;68.50;;;;;;6336832;22;20005;-75
2022/11/11 08:04:15;;;;;;;26.45;14.68;;;11.90;68.60;;;;;;6337773;22;20076;-76
2022/11/11 08:06:40;;;;;;;26.73;14.40;;;11.90;68.60;;;;;;6310148;22;20003;-76
2022/11/11 08:09:06;;;;;;;30.45;15.32;;;11.90;68.70;;;;;;6337959;22;19995;-75
2022/11/11 08:14:16;;;;;;;74.78;31.20;;;12.00;68.90;;;;;;6338107;22;20010;-75
2022/11/11 08:16:42;;;;;;;97.45;39.00;;;12.10;69.30;;;;;;6338067;22;19995;-75
2022/11/11 08:19:07;;;;;;;94.97;38.60;;;12.10;69.70;;;;;;6337836;22;20014;-74
2022/11/11 08:21:33;;;;;;;90.88;37.03;;;12.20;69.00;;;;;;6338181;22;20002;-75
2022/11/11 08:23:59;;;;;;;93.05;36.75;;;12.20;68.90;;;;;;6337813;22;20592;-75
2022/11/11 08:26:25;;;;;;;88.75;37.55;;;12.30;68.90;;;;;;6337570;22;19998;-75
2022/11/11 08:28:52;;;;;;;79.65;34.72;;;12.30;68.50;;;;;;6338036;22;20018;-76
2022/11/11 08:31:17;;;;;;;83.43;34.67;;;12.40;68.40;;;;;;6338531;22;20003;-75
2022/11/11 08:33:43;;;;;;;94.85;40.20;;;12.40;68.10;;;;;;6310152;22;20090;-77
2022/11/11 08:36:10;;;;;;;100.65;40.38;;;12.40;68.00;;;;;;6310161;22;20007;-75
2022/11/11 08:38:36;;;;;;;102.78;40.10;;;12.40;67.90;;;;;;6337744;22;20003;-77
2022/11/11 08:41:04;;;;;;;93.25;38.05;;;12.50;67.90;;;;;;6310258;22;20003;-77
2022/11/11 08:43:33;;;;;;;90.65;33.97;;;12.50;67.70;;;;;;6339338;22;20033;-75
2022/11/11 08:46:02;;;;;;;73.82;33.08;;;12.50;67.70;;;;;;6312478;22;20003;-77
2022/11/11 08:48:27;;;;;;;66.07;29.85;;;12.50;67.70;;;;;;6339581;22;20491;-77
2022/11/11 08:50:53;;;;;;;62.80;29.23;;;12.50;67.50;;;;;;6339608;22;20034;-75
2022/11/11 08:53:19;;;;;;;64.35;30.00;;;12.50;67.50;;;;;;6339636;22;19995;-75
2022/11/11 08:55:45;;;;;;;71.90;29.88;;;12.50;67.30;;;;;;6339550;22;20003;-76
2022/11/11 08:58:12;;;;;;;83.07;33.13;;;12.50;67.30;;;;;;6312034;22;20030;-77
2022/11/11 09:00:38;;;;;;;79.30;31.45;;;12.50;67.20;;;;;;6339534;22;20060;-75
2022/11/11 09:03:06;;;;;;;73.30;33.20;;;12.50;67.20;;;;;;6339624;22;19999;-76
2022/11/11 09:05:33;;;;;;;71.75;30.30;;;12.60;67.30;;;;;;6311889;22;20319;-76
2022/11/11 09:08:05;;;;;;;66.35;29.98;;;12.60;67.50;;;;;;6339608;22;19994;-76
2022/11/11 09:10:32;;;;;;;70.93;31.95;;;12.60;67.70;;;;;;6339663;22;19983;-75
2022/11/11 09:12:58;;;;;;;80.25;32.58;;;12.60;67.60;;;;;;6311658;22;20005;-76
2022/11/11 09:15:25;;;;;;;69.38;31.30;;;12.70;67.50;;;;;;6311859;22;20002;-77
2022/11/11 09:17:51;;;;;;;67.53;28.70;;;12.70;67.50;;;;;;6339449;22;20076;-77
2022/11/11 09:20:18;;;;;;;65.30;30.42;;;12.80;67.70;;;;;;6339344;22;20073;-74
2022/11/11 09:22:48;;;;;;;91.07;39.83;;;12.80;67.80;;;;;;6339308;22;20461;-76
2022/11/11 09:25:14;;;;;;;87.38;37.90;;;12.90;67.50;;;;;;6339188;22;20006;-76
2022/11/11 09:27:41;;;;;;;87.75;38.72;;;12.90;67.20;;;;;;6339014;22;20022;-76
2022/11/11 09:30:08;;;;;;;91.88;39.45;;;13.00;66.70;;;;;;6311741;22;20063;-76
2022/11/11 09:32:35;;;;;;;90.47;39.38;;;13.00;66.10;;;;;;6339272;22;20019;-77
2022/11/11 09:35:01;;;;;;;74.85;36.13;;;13.00;66.00;;;;;;6338922;22;20003;-76
2022/11/11 09:37:27;;;;;;;77.20;35.20;;;12.90;65.90;;;;;;6339057;22;20386;-76
2022/11/11 09:39:55;;;;;;;71.40;31.30;;;12.90;65.80;;;;;;6311611;22;20007;-76
2022/11/11 09:42:35;;;;;;;65.97;29.98;;;12.90;65.80;;;;;;6339122;22;20056;-76
2022/11/11 09:45:25;;;;;;;58.83;28.45;;;12.90;66.00;;;;;;6339289;22;19999;-77
2022/11/11 09:48:45;;;;;;;60.50;30.10;;;13.00;66.30;;;;;;6311764;22;20007;-77
2022/11/11 09:51:43;;;;;;;61.30;28.77;;;13.10;66.40;;;;;;6305432;22;20049;-75
2022/11/11 09:54:18;;;;;;;58.78;29.50;;;13.20;66.60;;;;;;6337423;22;20007;-75
2022/11/11 09:56:44;;;;;;;69.25;31.23;;;13.30;66.60;;;;;;6339232;22;20491;-76
2022/11/11 09:59:25;;;;;;;70.32;32.85;;;13.50;66.70;;;;;;6339135;22;20020;-78
2022/11/11 10:01:55;;;;;;;60.38;28.55;;;13.60;66.20;;;;;;6338513;22;20040;-76
2022/11/11 10:04:54;;;;;;;68.80;31.90;;;13.70;66.10;;;;;;6338265;22;20465;-74
2022/11/11 10:08:02;;;;;;;62.08;30.13;;;13.90;65.60;;;;;;6310946;22;20003;-77
2022/11/11 10:10:38;;;;;;;66.03;32.45;;;14.00;65.30;;;;;;6158305;23;20095;-74
2022/11/11 10:13:15;;;;;;;64.53;31.05;;;14.10;64.70;;;;;;6325335;22;20011;-76
2022/11/11 10:16:04;;;;;;;52.60;26.20;;;14.10;64.00;;;;;;6338797;22;20003;-75
2022/11/11 10:18:38;;;;;;;42.63;22.15;;;14.20;63.70;;;;;;6314884;22;20086;-76
2022/11/11 10:21:12;;;;;;;41.83;22.33;;;14.30;63.50;;;;;;6338891;22;20007;-78
2022/11/11 10:23:38;;;;;;;45.08;22.38;;;14.30;63.60;;;;;;6338669;22;20003;-76
2022/11/11 10:26:14;;;;;;;32.78;19.85;;;14.40;63.50;;;;;;6310872;22;20007;-75
2022/11/11 10:28:42;;;;;;;35.72;18.70;;;14.40;63.10;;;;;;6338795;22;19999;-76
2022/11/11 10:31:18;;;;;;;35.28;19.15;;;14.50;62.60;;;;;;6338580;22;20414;-75
2022/11/11 10:33:56;;;;;;;31.77;17.48;;;14.50;62.40;;;;;;6339141;22;19998;-74
2022/11/11 10:36:24;;;;;;;28.17;15.82;;;14.60;62.40;;;;;;6338705;22;20377;-75
2022/11/11 10:38:58;;;;;;;25.00;14.45;;;14.60;62.20;;;;;;6339033;22;20005;-75
2022/11/11 10:41:33;;;;;;;19.75;12.38;;;14.60;61.90;;;;;;6338630;22;19999;-75
2022/11/11 10:43:58;;;;;;;17.15;12.15;;;14.70;61.60;;;;;;6338319;22;19998;-75
2022/11/11 10:46:40;;;;;;;16.63;9.65;;;14.70;61.30;;;;;;6310854;22;20003;-73
2022/11/11 10:49:17;;;;;;;14.80;9.35;;;14.70;61.00;;;;;;6338650;22;20035;-76
2022/11/11 10:52:25;;;;;;;12.65;8.82;;;14.60;60.80;;;;;;6338694;22;20018;-76
2022/11/11 10:55:29;;;;;;;13.07;9.10;;;14.60;61.10;;;;;;6336783;22;20015;-75
2022/11/11 10:58:10;;;;;;;12.57;8.90;;;14.70;61.20;;;;;;6253234;22;20026;-76
2022/11/11 11:00:38;;;;;;;12.75;9.32;;;14.70;61.60;;;;;;6310574;22;20007;-77
2022/11/11 11:03:30;;;;;;;15.23;9.73;;;14.80;61.70;;;;;;6310617;22;20517;-75
2022/11/11 11:06:24;;;;;;;12.43;7.85;;;14.90;61.30;;;;;;6337539;22;20085;-73
2022/11/11 11:08:54;;;;;;;12.57;7.93;;;15.00;61.70;;;;;;6332182;22;20014;-76
2022/11/11 11:11:30;;;;;;;15.55;8.93;;;15.10;61.60;;;;;;6336665;22;20023;-76
2022/11/11 11:14:09;;;;;;;11.20;8.32;;;15.10;60.90;;;;;;6338497;22;19999;-75
2022/11/11 11:16:43;;;;;;;15.90;10.13;;;15.20;61.10;;;;;;6338373;22;20526;-75
2022/11/11 11:19:22;;;;;;;15.73;10.52;;;15.40;60.60;;;;;;6338102;22;20056;-75
2022/11/11 11:21:55;;;;;;;16.65;11.45;;;15.40;60.30;;;;;;6338816;22;20430;-74
2022/11/11 11:24:24;;;;;;;18.52;11.00;;;15.50;60.00;;;;;;6338303;22;20005;-75
2022/11/11 11:26:53;;;;;;;15.82;10.10;;;15.50;59.70;;;;;;6338444;22;20360;-77
2022/11/11 11:29:32;;;;;;;15.00;8.80;;;15.50;60.40;;;;;;6338264;22;20048;-75
2022/11/11 11:32:22;;;;;;;17.27;10.18;;;15.50;59.70;;;;;;6338239;22;19995;-76
2022/11/11 11:34:50;;;;;;;13.73;8.85;;;15.40;59.70;;;;;;6310469;22;20041;-74
2022/11/11 11:37:17;;;;;;;13.85;9.98;;;15.30;59.60;;;;;;6338353;22;20460;-77
2022/11/11 11:39:43;;;;;;;16.63;10.35;;;15.30;59.70;;;;;;6338245;22;20073;-76
2022/11/11 11:42:33;;;;;;;24.58;14.50;;;15.20;59.80;;;;;;6338463;22;20074;-76
2022/11/11 11:45:20;;;;;;;29.02;15.82;;;15.20;59.90;;;;;;6338031;22;20027;-74
2022/11/11 11:47:55;;;;;;;29.67;16.35;;;15.20;60.10;;;;;;6338101;22;20430;-77
2022/11/11 11:50:50;;;;;;;28.08;15.43;;;15.20;60.20;;;;;;6338087;22;20001;-75
2022/11/11 11:53:27;;;;;;;23.05;13.95;;;15.10;60.10;;;;;;6309882;22;20426;-75
2022/11/11 11:56:06;;;;;;;27.15;14.88;;;15.10;60.30;;;;;;6310530;22;20091;-74
2022/11/11 11:58:59;;;;;;;28.35;17.77;;;15.10;60.20;;;;;;6337882;22;20003;-74
2022/11/11 12:01:50;;;;;;;22.85;14.55;;;15.10;60.20;;;;;;6336730;22;20006;-75
2022/11/11 12:04:46;;;;;;;24.98;13.95;;;15.10;60.50;;;;;;6337458;22;20003;-76
2022/11/11 12:07:53;;;;;;;19.63;13.10;;;15.10;60.70;;;;;;6337773;22;20385;-74
2022/11/11 12:10:25;;;;;;;27.80;14.05;;;15.10;60.80;;;;;;6284927;22;20059;-74
2022/11/11 12:13:08;;;;;;;22.20;13.77;;;15.20;60.40;;;;;;6309978;22;20342;-75
2022/11/11 12:15:57;;;;;;;26.08;14.98;;;15.20;60.00;;;;;;6338014;22;19999;-75
2022/11/11 12:18:48;;;;;;;29.35;15.23;;;15.20;60.00;;;;;;6312914;22;20011;-75
2022/11/11 12:21:15;;;;;;;25.75;14.80;;;15.10;59.70;;;;;;6308680;22;20011;-74
2022/11/11 12:23:51;;;;;;;20.23;12.50;;;15.10;59.90;;;;;;6308657;22;20007;-74
2022/11/11 12:26:20;;;;;;;24.20;12.95;;;15.10;60.00;;;;;;6308378;22;20322;-74
2022/11/11 12:28:54;;;;;;;23.85;13.63;;;15.10;60.10;;;;;;6308527;22;20414;-76
2022/11/11 12:31:35;;;;;;;25.80;14.50;;;15.00;60.10;;;;;;6308447;22;20326;-74
2022/11/11 12:34:38;;;;;;;27.23;15.45;;;15.00;60.10;;;;;;6279731;22;20149;-77
2022/11/11 12:37:48;;;;;;;25.52;14.73;;;15.00;60.00;;;;;;6307933;22;20003;-75
2022/11/11 12:40:40;;;;;;;29.80;15.70;;;14.90;60.20;;;;;;6250160;22;20012;-76
2022/11/11 12:43:19;;;;;;;25.08;14.40;;;14.90;60.40;;;;;;6308628;22;19999;-75
2022/11/11 12:46:09;;;;;;;24.77;15.18;;;14.90;60.50;;;;;;6280696;22;20107;-76
2022/11/11 12:48:37;;;;;;;25.55;14.82;;;14.80;60.50;;;;;;6307433;22;20007;-75
2022/11/11 12:51:23;;;;;;;23.83;15.25;;;14.80;60.70;;;;;;6281021;22;20090;-74
2022/11/11 12:54:18;;;;;;;28.50;15.38;;;14.80;61.00;;;;;;6245399;22;20308;-76
2022/11/11 12:57:32;;;;;;;26.88;16.73;;;14.80;61.20;;;;;;6308414;22;19999;-75
2022/11/11 13:00:12;;;;;;;29.70;17.33;;;14.80;61.10;;;;;;6281040;22;20003;-76
2022/11/11 13:03:04;;;;;;;29.27;17.50;;;14.90;61.10;;;;;;6308503;22;20080;-76
2022/11/11 13:05:47;;;;;;;25.55;15.55;;;14.90;61.00;;;;;;6307919;22;19999;-76
2022/11/11 13:08:27;;;;;;;23.75;15.18;;;14.90;61.30;;;;;;6308194;22;19999;-75
2022/11/11 13:11:03;;;;;;;27.17;14.30;;;15.00;61.30;;;;;;6280780;22;20455;-75
2022/11/11 13:13:52;;;;;;;26.38;15.52;;;15.00;60.90;;;;;;6308075;22;19995;-74
2022/11/11 13:16:22;;;;;;;24.00;15.35;;;15.00;60.80;;;;;;6308329;22;20126;-74
2022/11/11 13:18:56;;;;;;;25.08;15.18;;;15.10;60.80;;;;;;6309644;22;20125;-74
2022/11/11 13:21:33;;;;;;;23.13;14.85;;;15.10;60.80;;;;;;6311852;22;20060;-73
2022/11/11 13:23:59;;;;;;;26.35;14.75;;;15.10;60.60;;;;;;6339294;22;20002;-76
2022/11/11 13:26:43;;;;;;;25.17;13.60;;;15.10;60.20;;;;;;6311507;22;20098;-75
2022/11/11 13:29:35;;;;;;;22.20;13.45;;;15.20;60.30;;;;;;6338793;22;20448;-76
2022/11/11 13:32:04;;;;;;;21.08;14.02;;;15.30;60.40;;;;;;6311622;22;20326;-76
2022/11/11 13:34:33;;;;;;;21.92;13.45;;;15.30;60.30;;;;;;6339052;22;19999;-74
2022/11/11 13:37:03;;;;;;;20.92;13.23;;;15.30;60.20;;;;;;6339127;22;20002;-74
2022/11/11 13:39:38;;;;;;;19.52;13.00;;;15.30;59.90;;;;;;6339078;22;20022;-77
2022/11/11 13:42:05;;;;;;;17.42;11.52;;;15.20;59.80;;;;;;6339117;22;20318;-76
2022/11/11 13:44:46;;;;;;;19.27;11.98;;;15.20;59.80;;;;;;6338764;22;19999;-74
2022/11/11 13:47:23;;;;;;;17.58;11.73;;;15.20;59.70;;;;;;6339142;22;20022;-76
2022/11/11 13:50:19;;;;;;;19.83;11.90;;;15.10;59.60;;;;;;6339123;22;19999;-75
2022/11/11 13:53:01;;;;;;;22.10;12.85;;;15.00;59.70;;;;;;6339109;22;20074;-74
2022/11/11 13:55:35;;;;;;;15.63;10.77;;;15.00;59.80;;;;;;6338630;22;20006;-74
2022/11/11 13:58:03;;;;;;;18.30;11.68;;;14.90;59.90;;;;;;6311138;22;20505;-76
2022/11/11 14:00:35;;;;;;;19.40;12.40;;;14.80;60.00;;;;;;6311333;22;20094;-75
2022/11/11 14:03:16;;;;;;;17.25;11.20;;;14.80;60.00;;;;;;6338705;22;20033;-75
2022/11/11 14:05:41;;;;;;;17.75;12.55;;;14.70;60.20;;;;;;6338693;22;20082;-75
2022/11/11 14:08:45;;;;;;;18.75;12.25;;;14.60;60.20;;;;;;6338952;22;20022;-74
2022/11/11 14:11:24;;;;;;;20.83;12.15;;;14.50;60.30;;;;;;6338859;22;20056;-76
2022/11/11 14:13:51;;;;;;;18.23;11.93;;;14.50;60.60;;;;;;6338872;22;20074;-76